createdAt,value
2022-10-23T00:01:49.819Z,2.98
2022-10-23T00:04:23.942Z,3.00
2022-10-23T00:06:50.764Z,3.05
2022-10-23T00:09:23.722Z,3.03
2022-10-23T00:11:52.399Z,3.01
2022-10-23T00:14:22.187Z,2.95
2022-10-23T00:16:48.680Z,2.95
2022-10-23T00:19:15.609Z,2.84
2022-10-23T00:21:42.150Z,2.97
2022-10-23T00:26:36.861Z,2.88
2022-10-23T00:29:03.795Z,2.90
2022-10-23T00:31:30.235Z,2.91
2022-10-23T00:33:56.771Z,2.93
2022-10-23T00:36:23.580Z,2.80
2022-10-23T00:38:50.257Z,2.82
2022-10-23T00:41:23.957Z,2.64
2022-10-23T00:43:59.547Z,2.66
2022-10-23T00:46:26.530Z,2.67
2022-10-23T00:48:53.031Z,2.69
2022-10-23T00:51:19.711Z,2.62
2022-10-23T00:54:01.053Z,2.56
2022-10-23T00:56:39.516Z,2.55
2022-10-23T00:59:06.396Z,2.57
2022-10-23T01:01:33.058Z,2.73
2022-10-23T01:04:01.320Z,2.79
2022-10-23T01:06:42.594Z,2.93
2022-10-23T01:09:27.021Z,2.97
2022-10-23T01:12:01.665Z,3.10
2022-10-23T01:14:37.925Z,3.13
2022-10-23T01:17:12.459Z,3.22
2022-10-23T01:20:02.675Z,3.26
2022-10-23T01:22:34.911Z,3.30
2022-10-23T01:25:23.567Z,3.29
2022-10-23T01:28:00.494Z,3.46
2022-10-23T01:30:27.038Z,3.37
2022-10-23T01:32:53.668Z,3.27
2022-10-23T01:35:29.038Z,3.06
2022-10-23T01:38:03.411Z,2.91
2022-10-23T01:40:34.975Z,2.68
2022-10-23T01:43:10.364Z,2.84
2022-10-23T01:45:44.359Z,2.86
2022-10-23T01:48:15.295Z,2.77
2022-10-23T01:50:43.475Z,2.83
2022-10-23T01:53:10.054Z,2.84
2022-10-23T01:55:39.087Z,2.95
2022-10-23T01:58:07.487Z,3.11
2022-10-23T02:00:38.640Z,3.21
2022-10-23T02:03:08.555Z,3.29
2022-10-23T02:05:35.442Z,3.32
2022-10-23T02:08:02.630Z,3.25
2022-10-23T02:10:38.723Z,3.39
2022-10-23T02:13:24.996Z,3.35
2022-10-23T02:16:29.600Z,3.28
2022-10-23T02:19:04.683Z,3.42
2022-10-23T02:21:50.426Z,3.53
2022-10-23T02:24:23.899Z,3.53
2022-10-23T02:26:57.620Z,3.49
2022-10-23T02:29:37.706Z,3.52
2022-10-23T02:32:05.977Z,3.48
2022-10-23T02:34:32.630Z,3.53
2022-10-23T02:36:59.371Z,3.59
2022-10-23T02:39:27.999Z,3.56
2022-10-23T02:42:02.817Z,3.52
2022-10-23T02:44:43.066Z,3.60
2022-10-23T02:47:30.607Z,3.59
2022-10-23T02:50:10.925Z,3.76
2022-10-23T02:52:55.763Z,3.77
2022-10-23T02:55:37.390Z,3.79
2022-10-23T02:58:12.827Z,3.74
2022-10-23T03:00:54.603Z,3.80
2022-10-23T03:03:29.968Z,3.93
2022-10-23T03:05:56.637Z,3.89
2022-10-23T03:08:23.304Z,3.85
2022-10-23T03:10:49.859Z,3.93
2022-10-23T03:13:16.324Z,3.98
2022-10-23T03:15:43.871Z,4.06
2022-10-23T03:18:10.455Z,4.00
2022-10-23T03:20:36.957Z,4.02
2022-10-23T03:23:03.456Z,3.97
2022-10-23T03:25:29.953Z,3.98
2022-10-23T03:27:56.424Z,4.05
2022-10-23T03:30:23.091Z,4.05
2022-10-23T03:32:49.639Z,4.04
2022-10-23T03:35:16.412Z,3.85
2022-10-23T03:37:43.069Z,3.71
2022-10-23T03:40:10.394Z,3.64
2022-10-23T03:42:36.862Z,3.66
2022-10-23T03:45:03.651Z,3.57
2022-10-23T03:47:30.269Z,3.56
2022-10-23T03:49:56.766Z,3.63
2022-10-23T03:54:54.776Z,3.58
2022-10-23T03:57:21.304Z,3.57
2022-10-23T03:59:47.829Z,3.70
2022-10-23T04:02:14.522Z,3.73
2022-10-23T04:04:41.083Z,3.76
2022-10-23T04:07:07.607Z,3.71
2022-10-23T04:09:34.133Z,3.63
2022-10-23T04:12:00.591Z,3.72
2022-10-23T04:14:27.367Z,3.75
2022-10-23T04:16:53.899Z,3.83
2022-10-23T04:19:20.364Z,3.81
2022-10-23T04:21:46.920Z,3.84
2022-10-23T04:24:13.830Z,3.90
2022-10-23T04:26:40.324Z,3.88
2022-10-23T04:29:06.881Z,3.97
2022-10-23T04:31:33.513Z,4.06
2022-10-23T04:34:00.383Z,4.16
2022-10-23T04:36:26.987Z,4.06
2022-10-23T04:38:53.541Z,4.07
2022-10-23T04:41:20.042Z,4.07
2022-10-23T04:43:46.491Z,4.10
2022-10-23T04:46:13.147Z,4.27
2022-10-23T04:48:39.625Z,4.24
2022-10-23T04:51:06.531Z,4.17
2022-10-23T04:53:33.305Z,4.22
2022-10-23T04:56:00.231Z,4.26
2022-10-23T04:58:28.532Z,4.40
2022-10-23T05:00:55.295Z,4.31
2022-10-23T05:03:23.161Z,4.33
2022-10-23T05:05:53.391Z,4.44
2022-10-23T05:08:20.420Z,4.41
2022-10-23T05:10:48.376Z,4.44
2022-10-23T05:13:14.904Z,4.43
2022-10-23T05:18:35.915Z,4.38
2022-10-23T05:21:14.971Z,4.48
2022-10-23T05:23:44.342Z,4.49
2022-10-23T05:26:10.824Z,4.58
2022-10-23T05:28:37.537Z,4.59
2022-10-23T05:31:05.638Z,4.60
2022-10-23T05:33:33.322Z,4.62
2022-10-23T05:36:01.186Z,4.58
2022-10-23T05:38:32.195Z,4.52
2022-10-23T05:40:58.903Z,4.57
2022-10-23T05:43:25.616Z,4.49
2022-10-23T05:45:52.066Z,4.35
2022-10-23T05:48:33.461Z,4.42
2022-10-23T05:51:08.137Z,4.42
2022-10-23T05:53:36.257Z,4.51
2022-10-23T05:56:09.315Z,4.57
2022-10-23T05:58:35.798Z,4.54
2022-10-23T06:01:11.573Z,4.69
2022-10-23T06:03:39.113Z,4.78
2022-10-23T06:06:07.189Z,4.88
2022-10-23T06:08:34.673Z,5.04
2022-10-23T06:11:12.040Z,5.18
2022-10-23T06:13:38.688Z,5.23
2022-10-23T06:16:24.478Z,5.11
2022-10-23T06:18:51.239Z,5.13
2022-10-23T06:21:18.205Z,5.07
2022-10-23T06:23:46.403Z,5.09
2022-10-23T06:26:15.764Z,5.19
2022-10-23T06:28:42.564Z,5.18
2022-10-23T06:31:11.981Z,5.24
2022-10-23T06:33:38.770Z,5.38
2022-10-23T06:36:06.109Z,5.39
2022-10-23T06:38:32.669Z,5.37
2022-10-23T06:40:59.194Z,5.34
2022-10-23T06:43:25.652Z,5.23
2022-10-23T06:45:52.128Z,5.31
2022-10-23T06:48:18.655Z,5.38
2022-10-23T06:50:45.183Z,5.34
2022-10-23T06:53:12.220Z,5.35
2022-10-23T06:55:39.134Z,5.42
2022-10-23T06:58:07.020Z,5.49
2022-10-23T07:00:33.532Z,5.48
2022-10-23T07:03:00.051Z,5.59
2022-10-23T07:05:26.509Z,5.61
2022-10-23T07:07:52.964Z,5.68
2022-10-23T07:10:19.509Z,5.76
2022-10-23T07:12:46.090Z,5.88
2022-10-23T07:15:12.643Z,6.00
2022-10-23T07:17:39.245Z,6.07
2022-10-23T07:20:06.200Z,6.10
2022-10-23T07:22:32.762Z,6.01
2022-10-23T07:24:59.417Z,5.99
2022-10-23T07:27:26.423Z,5.94
2022-10-23T07:29:53.232Z,6.10
2022-10-23T07:32:20.231Z,6.00
2022-10-23T07:34:46.876Z,6.01
2022-10-23T07:37:13.416Z,5.95
2022-10-23T07:39:40.160Z,5.88
2022-10-23T07:42:06.702Z,5.88
2022-10-23T07:44:33.256Z,5.85
2022-10-23T07:46:59.898Z,5.79
2022-10-23T07:49:26.455Z,5.87
2022-10-23T07:51:53.091Z,5.78
2022-10-23T07:54:19.796Z,5.82
2022-10-23T07:56:46.337Z,5.71
2022-10-23T07:59:13.788Z,5.74
2022-10-23T08:01:41.177Z,5.72
2022-10-23T08:04:09.280Z,5.63
2022-10-23T08:06:36.151Z,5.69
2022-10-23T08:09:06.278Z,5.64
2022-10-23T08:11:34.012Z,5.76
2022-10-23T08:14:02.150Z,5.73
2022-10-23T08:16:28.749Z,5.68
2022-10-23T08:18:55.289Z,5.87
2022-10-23T08:21:21.977Z,5.84
2022-10-23T08:23:48.686Z,5.95
2022-10-23T08:26:15.562Z,5.99
2022-10-23T08:28:42.104Z,5.98
2022-10-23T08:31:11.486Z,5.92
2022-10-23T08:33:39.085Z,5.96
2022-10-23T08:36:06.444Z,6.08
2022-10-23T08:38:33.206Z,6.11
2022-10-23T08:40:59.925Z,6.21
2022-10-23T08:43:45.308Z,6.15
2022-10-23T08:46:17.822Z,6.04
2022-10-23T08:48:57.019Z,5.95
2022-10-23T08:51:38.012Z,5.98
2022-10-23T08:54:25.779Z,6.03
2022-10-23T08:57:03.983Z,5.97
2022-10-23T08:59:38.357Z,6.01
2022-10-23T09:02:17.547Z,5.89
2022-10-23T09:04:48.304Z,5.84
2022-10-23T09:07:56.237Z,6.01
2022-10-23T09:10:48.149Z,5.91
2022-10-23T09:13:53.954Z,6.11
2022-10-23T09:16:32.500Z,5.93
2022-10-23T09:18:59.489Z,5.88
2022-10-23T09:21:29.513Z,5.82
2022-10-23T09:23:56.848Z,5.86
2022-10-23T09:26:23.550Z,5.83
2022-10-23T09:28:52.872Z,5.89
2022-10-23T09:31:19.860Z,5.83
2022-10-23T09:34:00.631Z,5.85
2022-10-23T09:36:28.785Z,5.80
2022-10-23T09:38:59.484Z,6.05
2022-10-23T09:41:38.946Z,5.92
2022-10-23T09:44:08.478Z,6.00
2022-10-23T09:46:43.374Z,6.06
2022-10-23T09:49:20.805Z,5.98
2022-10-23T09:52:02.152Z,6.13
2022-10-23T09:54:32.408Z,6.31
2022-10-23T09:57:04.809Z,6.08
2022-10-23T09:59:32.663Z,6.09
2022-10-23T10:02:02.024Z,6.18
2022-10-23T10:04:37.391Z,6.16
2022-10-23T10:07:06.875Z,6.24
2022-10-23T10:09:33.707Z,6.23
2022-10-23T10:12:23.551Z,6.38
2022-10-23T10:15:26.043Z,6.28
2022-10-23T10:18:20.056Z,6.48
2022-10-23T10:21:20.099Z,6.38
2022-10-23T10:24:18.451Z,6.53
2022-10-23T10:26:58.193Z,6.38
2022-10-23T10:29:42.903Z,6.24
2022-10-23T10:32:57.153Z,6.30
2022-10-23T10:35:45.804Z,6.24
2022-10-23T10:38:47.365Z,6.36
2022-10-23T10:41:37.423Z,6.24
2022-10-23T10:44:32.663Z,6.26
2022-10-23T10:47:10.817Z,6.24
2022-10-23T10:49:55.657Z,6.29
2022-10-23T10:52:46.670Z,6.25
2022-10-23T10:55:32.314Z,6.17
2022-10-23T10:58:10.268Z,6.19
2022-10-23T11:00:37.094Z,6.20
2022-10-23T11:03:28.128Z,6.21
2022-10-23T11:08:29.261Z,6.32
2022-10-23T11:11:03.081Z,6.48
2022-10-23T11:13:38.567Z,6.44
2022-10-23T11:16:15.496Z,6.44
2022-10-23T11:18:47.292Z,6.54
2022-10-23T11:21:28.098Z,6.42
2022-10-23T11:24:03.899Z,6.40
2022-10-23T11:26:36.572Z,6.36
2022-10-23T11:29:18.199Z,6.33
2022-10-23T11:31:56.564Z,6.37
2022-10-23T11:34:40.306Z,6.51
2022-10-23T11:37:07.704Z,6.51
2022-10-23T11:39:36.709Z,6.47
2022-10-23T11:42:06.087Z,6.44
2022-10-23T11:44:41.732Z,6.48
2022-10-23T11:47:30.765Z,6.49
2022-10-23T11:50:08.607Z,6.52
2022-10-23T11:52:50.410Z,6.41
2022-10-23T11:55:31.144Z,6.40
2022-10-23T11:58:19.394Z,6.42
2022-10-23T12:00:57.443Z,6.47
2022-10-23T12:03:39.773Z,6.46
2022-10-23T12:06:07.240Z,6.49
2022-10-23T12:08:37.933Z,6.41
2022-10-23T12:11:04.765Z,6.50
2022-10-23T12:13:45.031Z,6.54
2022-10-23T12:16:12.246Z,6.57
2022-10-23T12:18:48.428Z,6.71
2022-10-23T12:21:23.443Z,6.55
2022-10-23T12:24:21.618Z,6.49
2022-10-23T12:27:24.635Z,6.57
2022-10-23T12:30:01.701Z,6.50
2022-10-23T12:32:34.559Z,6.59
2022-10-23T12:35:07.336Z,6.54
2022-10-23T12:38:11.985Z,6.55
2022-10-23T12:40:38.718Z,6.53
2022-10-23T12:43:25.262Z,6.63
2022-10-23T12:45:52.173Z,6.59
2022-10-23T12:48:20.811Z,6.65
2022-10-23T12:50:56.685Z,6.58
2022-10-23T12:53:23.911Z,6.67
2022-10-23T12:58:34.279Z,6.51
2022-10-23T13:01:07.203Z,6.60
2022-10-23T13:03:35.374Z,6.53
2022-10-23T13:06:03.331Z,6.71
2022-10-23T13:08:39.228Z,6.65
2022-10-23T13:11:06.665Z,6.54
2022-10-23T13:13:33.303Z,6.58
2022-10-23T13:16:00.105Z,6.51
2022-10-23T13:18:26.638Z,6.53
2022-10-23T13:20:53.319Z,6.57
2022-10-23T13:23:26.844Z,6.57
2022-10-23T13:26:25.641Z,6.48
2022-10-23T13:28:52.954Z,6.61
2022-10-23T13:31:29.548Z,6.58
2022-10-23T13:33:59.403Z,6.58
2022-10-23T13:36:30.198Z,6.59
2022-10-23T13:38:59.776Z,6.55
2022-10-23T13:41:29.453Z,6.57
2022-10-23T13:43:56.101Z,6.62
2022-10-23T13:46:24.409Z,6.63
2022-10-23T13:48:51.710Z,6.56
2022-10-23T13:51:22.208Z,6.56
2022-10-23T13:53:49.305Z,6.47
2022-10-23T13:56:18.270Z,6.50
2022-10-23T13:58:44.883Z,6.60
2022-10-23T14:01:35.477Z,6.58
2022-10-23T14:04:03.157Z,6.56
2022-10-23T14:06:30.576Z,6.60
2022-10-23T14:08:57.898Z,6.59
2022-10-23T14:11:25.088Z,6.57
2022-10-23T14:13:51.644Z,6.55
2022-10-23T14:16:20.030Z,6.60
2022-10-23T14:18:47.573Z,6.62
2022-10-23T14:21:16.524Z,6.60
2022-10-23T14:23:43.185Z,6.57
2022-10-23T14:26:12.493Z,6.63
2022-10-23T14:28:39.045Z,6.63
2022-10-23T14:31:07.880Z,6.60
2022-10-23T14:33:34.822Z,6.58
2022-10-23T14:36:01.469Z,6.56
2022-10-23T14:38:28.623Z,6.59
2022-10-23T14:40:55.401Z,6.56
2022-10-23T14:43:23.066Z,6.56
2022-10-23T14:45:49.761Z,6.56
2022-10-23T14:48:16.465Z,6.66
2022-10-23T14:50:45.192Z,6.66
2022-10-23T14:53:11.830Z,6.72
2022-10-23T14:55:38.657Z,6.62
2022-10-23T14:58:05.811Z,6.66
2022-10-23T15:00:32.863Z,6.64
2022-10-23T15:02:59.755Z,6.68
2022-10-23T15:05:26.434Z,6.63
2022-10-23T15:07:52.992Z,6.71
2022-10-23T15:10:19.538Z,6.71
2022-10-23T15:12:46.470Z,6.59
2022-10-23T15:15:13.297Z,6.67
2022-10-23T15:17:39.893Z,6.65
2022-10-23T15:20:06.761Z,6.70
2022-10-23T15:22:33.441Z,6.63
2022-10-23T15:24:59.991Z,6.70
2022-10-23T15:27:26.537Z,6.74
2022-10-23T15:29:53.276Z,6.75
2022-10-23T15:32:19.839Z,6.62
2022-10-23T15:34:46.548Z,6.71
2022-10-23T15:37:13.313Z,6.75
2022-10-23T15:39:39.984Z,6.73
2022-10-23T15:42:06.906Z,6.65
2022-10-23T15:44:34.335Z,6.72
2022-10-23T15:47:01.258Z,6.84
2022-10-23T15:49:28.686Z,6.83
2022-10-23T15:51:55.541Z,6.84
2022-10-23T15:54:22.473Z,6.76
2022-10-23T15:56:52.490Z,6.77
2022-10-23T15:59:21.973Z,6.77
2022-10-23T16:01:48.949Z,6.79
2022-10-23T16:04:15.646Z,6.74
2022-10-23T16:06:43.157Z,6.81
2022-10-23T16:09:09.928Z,6.82
2022-10-23T16:11:38.937Z,6.82
2022-10-23T16:14:06.221Z,6.80
2022-10-23T16:16:33.642Z,6.74
2022-10-23T16:19:02.125Z,6.76
2022-10-23T16:21:31.448Z,6.72
2022-10-23T16:23:59.720Z,6.77
2022-10-23T16:26:27.140Z,6.81
2022-10-23T16:28:55.498Z,6.88
2022-10-23T16:31:23.509Z,6.88
2022-10-23T16:33:51.085Z,6.86
2022-10-23T16:36:18.318Z,6.88
2022-10-23T16:38:44.970Z,6.87
2022-10-23T16:41:11.558Z,6.90
2022-10-23T16:43:38.332Z,6.92
2022-10-23T16:46:07.635Z,6.93
2022-10-23T16:48:34.999Z,6.93
2022-10-23T16:51:08.593Z,6.95
2022-10-23T16:53:35.579Z,6.95
2022-10-23T16:56:07.499Z,6.95
2022-10-23T16:58:35.125Z,6.99
2022-10-23T17:01:05.390Z,6.98
2022-10-23T17:03:40.142Z,7.04
2022-10-23T17:06:11.181Z,7.03
2022-10-23T17:08:39.089Z,7.06
2022-10-23T17:11:15.921Z,7.07
2022-10-23T17:13:53.973Z,7.05
2022-10-23T17:16:36.961Z,7.06
2022-10-23T17:19:16.045Z,7.06
2022-10-23T17:21:47.847Z,7.06
2022-10-23T17:24:14.551Z,7.07
2022-10-23T17:26:41.673Z,7.16
2022-10-23T17:29:10.387Z,7.16
2022-10-23T17:31:39.938Z,7.21
2022-10-23T17:34:10.603Z,7.24
2022-10-23T17:36:40.281Z,7.25
2022-10-23T17:39:08.374Z,7.26
2022-10-23T17:41:35.304Z,7.30
2022-10-23T17:44:02.294Z,7.35
2022-10-23T17:46:29.317Z,7.36
2022-10-23T17:51:35.332Z,7.34
2022-10-23T17:54:05.165Z,7.39
2022-10-23T17:56:34.247Z,7.33
2022-10-23T17:59:07.386Z,7.35
2022-10-23T18:01:34.293Z,7.39
2022-10-23T18:04:02.872Z,7.33
2022-10-23T18:06:32.751Z,7.26
2022-10-23T18:09:01.993Z,7.36
2022-10-23T18:11:32.324Z,7.34
2022-10-23T18:16:31.573Z,7.32
2022-10-23T18:18:59.747Z,7.37
2022-10-23T18:21:26.746Z,7.34
2022-10-23T18:23:53.682Z,7.31
2022-10-23T18:26:26.519Z,7.32
2022-10-23T18:28:55.477Z,7.34
2022-10-23T18:31:21.978Z,7.36
2022-10-23T18:33:48.597Z,7.41
2022-10-23T18:36:23.779Z,7.38
2022-10-23T18:38:50.933Z,7.47
2022-10-23T18:41:18.995Z,7.51
2022-10-23T18:43:46.441Z,7.57
2022-10-23T18:46:13.601Z,7.59
2022-10-23T18:48:41.273Z,7.63
2022-10-23T18:51:16.745Z,7.63
2022-10-23T18:53:44.441Z,7.68
2022-10-23T18:56:10.924Z,7.69
2022-10-23T18:58:37.705Z,7.70
2022-10-23T19:01:04.447Z,7.71
2022-10-23T19:03:31.050Z,7.74
2022-10-23T19:05:57.626Z,7.78
2022-10-23T19:08:24.125Z,7.79
2022-10-23T19:10:52.547Z,7.83
2022-10-23T19:13:19.059Z,7.85
2022-10-23T19:15:45.581Z,7.87
2022-10-23T19:18:12.096Z,7.86
2022-10-23T19:20:41.321Z,7.89
2022-10-23T19:23:07.861Z,7.88
2022-10-23T19:25:35.673Z,7.88
2022-10-23T19:28:03.377Z,7.89
2022-10-23T19:30:30.748Z,7.87
2022-10-23T19:32:57.347Z,7.86
2022-10-23T19:35:24.432Z,7.92
2022-10-23T19:37:50.976Z,7.90
2022-10-23T19:40:17.631Z,7.91
2022-10-23T19:42:44.257Z,7.99
2022-10-23T19:45:13.307Z,8.02
2022-10-23T19:47:40.906Z,8.01
2022-10-23T19:50:09.295Z,8.00
2022-10-23T19:52:36.010Z,8.01
2022-10-23T19:55:02.764Z,8.02
2022-10-23T19:57:29.602Z,8.04
2022-10-23T19:59:56.268Z,7.98
2022-10-23T20:02:23.094Z,7.95
2022-10-23T20:04:49.778Z,7.95
2022-10-23T20:07:16.549Z,7.87
2022-10-23T20:09:43.138Z,7.88
2022-10-23T20:12:10.304Z,7.86
2022-10-23T20:14:36.775Z,7.88
2022-10-23T20:17:03.400Z,7.87
2022-10-23T20:19:30.069Z,7.87
2022-10-23T20:21:56.545Z,7.83
2022-10-23T20:24:23.021Z,7.79
2022-10-23T20:26:54.086Z,7.80
2022-10-23T20:29:21.477Z,7.78
2022-10-23T20:31:48.356Z,7.76
2022-10-23T20:34:15.109Z,7.79
2022-10-23T20:36:46.623Z,7.78
2022-10-23T20:39:17.764Z,7.76
2022-10-23T20:41:44.446Z,7.77
2022-10-23T20:44:13.713Z,7.75
2022-10-23T20:46:40.679Z,7.79
2022-10-23T20:49:07.993Z,7.80
2022-10-23T20:51:34.460Z,7.82
2022-10-23T20:54:01.046Z,7.86
2022-10-23T20:56:30.587Z,7.89
2022-10-23T20:59:18.038Z,7.95
2022-10-23T21:01:49.723Z,7.93
2022-10-23T21:04:18.827Z,7.91
2022-10-23T21:07:08.498Z,7.99
2022-10-23T21:09:31.816Z,8.00
2022-10-23T21:11:58.348Z,8.02
2022-10-23T21:14:24.838Z,8.02
2022-10-23T21:16:51.331Z,8.03
2022-10-23T21:19:17.867Z,8.07
2022-10-23T21:21:44.432Z,8.06
2022-10-23T21:24:15.378Z,8.09
2022-10-23T21:26:42.424Z,8.10
2022-10-23T21:29:25.026Z,8.10
2022-10-23T21:31:56.331Z,8.13
2022-10-23T21:34:24.610Z,8.12
2022-10-23T21:37:11.963Z,8.19
2022-10-23T21:39:37.929Z,8.19
2022-10-23T21:42:04.667Z,8.14
2022-10-23T21:44:31.153Z,8.15
2022-10-23T21:46:57.786Z,8.17
2022-10-23T21:49:24.224Z,8.13
2022-10-23T21:51:50.679Z,8.10
2022-10-23T21:54:17.256Z,8.12
2022-10-23T21:56:49.037Z,8.07
2022-10-23T21:59:19.072Z,8.07
2022-10-23T22:01:47.166Z,8.06
2022-10-23T22:04:15.373Z,8.06
2022-10-23T22:06:43.220Z,8.07
2022-10-23T22:09:12.984Z,8.09
2022-10-23T22:11:39.481Z,8.12
2022-10-23T22:14:06.381Z,8.19
2022-10-23T22:16:33.206Z,8.19
2022-10-23T22:18:59.758Z,8.20
2022-10-23T22:21:28.850Z,8.21
2022-10-23T22:23:58.150Z,8.22
2022-10-23T22:26:26.158Z,8.20
2022-10-23T22:28:54.729Z,8.19
2022-10-23T22:31:23.518Z,8.17
2022-10-23T22:33:50.944Z,8.12
2022-10-23T22:36:17.607Z,8.10
2022-10-23T22:38:44.455Z,8.08
2022-10-23T22:41:11.636Z,8.05
2022-10-23T22:43:38.232Z,8.06
2022-10-23T22:46:16.233Z,8.10
2022-10-23T22:48:43.658Z,8.06
2022-10-23T22:51:15.837Z,8.12
2022-10-23T22:53:43.363Z,8.11
2022-10-23T22:56:13.249Z,8.12
2022-10-23T22:58:40.027Z,8.10
2022-10-23T23:01:14.736Z,8.08
2022-10-23T23:03:41.655Z,8.09
2022-10-23T23:06:09.059Z,8.13
2022-10-23T23:08:37.660Z,8.08
2022-10-23T23:11:05.526Z,8.07
2022-10-23T23:13:32.092Z,8.12
2022-10-23T23:15:59.220Z,8.08
2022-10-23T23:18:26.475Z,8.01
2022-10-23T23:20:52.967Z,8.02
2022-10-23T23:23:20.018Z,8.05
2022-10-23T23:25:48.985Z,8.04
2022-10-23T23:28:18.315Z,8.09
2022-10-23T23:33:17.895Z,8.06
2022-10-23T23:35:46.930Z,8.06
2022-10-23T23:38:13.569Z,8.04
2022-10-23T23:40:40.563Z,8.04
2022-10-23T23:43:07.208Z,8.02
2022-10-23T23:45:33.884Z,8.08
2022-10-23T23:48:00.379Z,8.07
2022-10-23T23:50:27.069Z,7.97
2022-10-23T23:52:53.557Z,7.97
2022-10-23T23:55:20.057Z,7.97
2022-10-23T23:57:46.948Z,7.90
